Tampa, FL

8:40 PM EDT on August 20, 2014 (GMT -0400)
West Park | Change Station
CLOSE
Current Station
Personal Weather Station
Location: Tampa, FL
Elevation: 46 ft
Nearby Weather Stations

Elev 46 ft 28.00 °N, 82.52 °W | Updated 9 minutes ago

Scattered Clouds
Scattered Clouds
86.9 °F
Feels Like 97 °F
N
1.6
Wind Variable Wind from NW
Gusts 5.4 mph

Today
High -- | Low -- °F
--% Chance of Precip.
Yesterday
High -- | Low -- °F
Precip. -- in
7:02 AM 8:03 PM
Waning Crescent, 18% visible
Pressure 30.07 in
Visibility 10.0 miles
Clouds Few 4000 ft
Scattered Clouds 30000 ft
Heat Index 97 °F
Dew Point 76 °F
Humidity 69%
Rainfall 0.00 in
Snow Depth Not available.
UV 0 out of 12
Pollen 4.20 out of 12
Air Quality Not available.
Flu Activity Not available.
METAR KTPA 202353Z 32006KT 10SM FEW040 SCT300 31/23 A3007 RMK AO2 SLP181 CB DSNT E AND SE AND S TCU DSNT E AND S T03060228 10372 20306 53006

More Conditions Fewer Conditions

Pressure 30.07 in
Visibility 10.0 miles
Clouds Few 4000 ft
Scattered Clouds 30000 ft
Heat Index 97 °F
Dew Point 76 °F
Humidity 69%
Rainfall 0.00 in
Snow Depth Not available.
UV 0 out of 12
Pollen 4.20 out of 12
Air Quality Not available.
Flu Activity Not available.
METAR KTPA 202353Z 32006KT 10SM FEW040 SCT300 31/23 A3007 RMK AO2 SLP181 CB DSNT E AND SE AND S TCU DSNT E AND S T03060228 10372 20306 53006

More Conditions Fewer Conditions

10-Day Weather Forecast

Almanac

Astronomy

Aug. 20, 2014 Rise Set
Actual Time 7:02 AM EDT 8:03 PM EDT
Civil Twilight 6:38 AM EDT 8:27 PM EDT
Nautical Twilight 6:09 AM EDT 8:56 PM EDT
Astronomical Twilight 5:40 AM EDT 9:26 PM EDT
Moon 2:50 AM EDT (8/20) 4:39 PM EDT (8/20)
Length of Visible Light 13h 49m
Length of Day
13h 00m
Tomorrow will be 1m 30s shorter.
Waning Crescent, 18% of the Moon is Illuminated
Today
Waning Crescent
Aug 25
New
Sep 2
First Quarter
Sep 8
Full
Sep 15
Last Quarter

Today's Extremes

State Highs State Lows

Community

WunderPhotos

Upload Photos

1,745,811 photos uploaded!

WunderBlogs® & News

Nearby

Snow Depth

Station Depth Elevation
No new snow has been reported.

Earthquake Activity

City Distance Mag. Time & Date
No recent earthquake activity has been reported nearby.
Minimum magnitude displayed is 2.5.

Coastal Water Temperatures

Place Temperature
St Petersburg, FL 91.9 °F
Old Port Tampa, FL 90.0 °F
McKay Bay Entrance, FL 90.0 °F

Nearby Weather Stations